Terminal Aerodrome Forecast
Issued by NWS

Home | Current Version | Previous Version | Text Only | Print | Product List | Glossary On
Versions: 1 2 3 4 5 6 7 8 9 10 11 12 13 14 15 16 17 18 19 20 21 22 23 24 25 26
000
FTUS45 KREV 251700 RRA
TAFTVL
TAF
KTVL 251741Z 2518/2618 20010G18KT 6SM -SHSN SCT030 BKN035
      TEMPO 2518/2522 4SM -SHSN SCT020 BKN035
     FM252200 20010KT P6SM VCSH SCT030 BKN060
     FM260200 VRB04KT P6SM SCT040 BKN080
     FM260600 VRB04KT P6SM SCT220=

USA.gov is the U.S. government's official web portal to all federal, state and local government web resources and services.